Time;durP1;ratioP1;P1;durP2;ratioP2;P2;SDS_P1;SDS_P2;PMS_P1;PMS_P2;Temp;Humidity;BMP_temperature;BMP_pressure;BME280_temperature;BME280_humidity;BME280_pressure;Samples;Min_cycle;Max_cycle;Signal;HPM_P1;HPM_P2
2021/04/16 00:02:07;;;;;;;7.90;5.30;;;;;;;;;;741655;189;1039551;-68
2021/04/16 00:04:33;;;;;;;6.47;5.33;;;;;;;;;;733448;189;919307;-69
2021/04/16 00:06:59;;;;;;;7.80;5.63;;;;;;;;;;735050;189;922347;-68
2021/04/16 00:09:24;;;;;;;8.90;6.40;;;;;;;;;;729638;189;919687;-68
2021/04/16 00:11:50;;;;;;;10.13;6.63;;;;;;;;;;740848;189;918038;-68
2021/04/16 00:14:16;;;;;;;7.60;5.47;;;;;;;;;;730414;189;1300483;-68
2021/04/16 00:16:42;;;;;;;8.97;5.87;;;;;;;;;;738959;189;918769;-68
2021/04/16 00:19:08;;;;;;;8.53;5.40;;;;;;;;;;737328;189;914361;-71
2021/04/16 00:21:34;;;;;;;9.90;6.30;;;;;;;;;;733547;189;916549;-68
2021/04/16 00:23:59;;;;;;;8.50;6.22;;;;;;;;;;736963;189;922631;-67
2021/04/16 00:26:25;;;;;;;9.70;7.10;;;;;;;;;;739031;189;919489;-68
2021/04/16 00:28:51;;;;;;;10.50;5.80;;;;;;;;;;734163;189;919511;-68
2021/04/16 00:31:17;;;;;;;9.67;6.60;;;;;;;;;;731190;189;919225;-68
2021/04/16 00:33:43;;;;;;;10.20;6.93;;;;;;;;;;734881;189;918667;-65
2021/04/16 00:36:09;;;;;;;10.63;7.13;;;;;;;;;;742345;186;898301;-68
2021/04/16 00:38:35;;;;;;;14.03;7.37;;;;;;;;;;728122;189;919224;-68
2021/04/16 00:41:01;;;;;;;9.77;7.17;;;;;;;;;;727631;189;918840;-68
2021/04/16 00:43:27;;;;;;;10.57;7.47;;;;;;;;;;740368;189;919111;-67
2021/04/16 00:45:54;;;;;;;9.07;6.18;;;;;;;;;;729836;189;917898;-68
2021/04/16 00:48:21;;;;;;;11.23;7.03;;;;;;;;;;735743;189;928250;-67
2021/04/16 00:50:47;;;;;;;11.87;7.07;;;;;;;;;;737704;189;919741;-68
2021/04/16 00:53:12;;;;;;;11.90;7.03;;;;;;;;;;736301;189;918774;-67
2021/04/16 00:55:38;;;;;;;16.40;6.90;;;;;;;;;;728558;189;1645747;-69
2021/04/16 00:58:04;;;;;;;13.07;7.00;;;;;;;;;;735495;189;950012;-66
2021/04/16 01:00:30;;;;;;;10.60;6.63;;;;;;;;;;745444;185;919375;-69
2021/04/16 01:02:56;;;;;;;11.13;6.47;;;;;;;;;;733290;189;918726;-68
2021/04/16 01:05:22;;;;;;;10.70;7.00;;;;;;;;;;734749;189;919618;-68
2021/04/16 01:07:48;;;;;;;13.13;7.90;;;;;;;;;;737280;189;918196;-68
2021/04/16 01:10:14;;;;;;;9.57;6.80;;;;;;;;;;731515;189;1021389;-68
2021/04/16 01:12:40;;;;;;;8.00;6.60;;;;;;;;;;734123;189;918676;-68
2021/04/16 01:15:15;;;;;;;12.10;7.17;;;;;;;;;;741748;189;919420;-68
2021/04/16 01:17:33;;;;;;;10.90;6.80;;;;;;;;;;737874;189;919387;-67
2021/04/16 01:19:59;;;;;;;11.17;7.20;;;;;;;;;;737940;189;918395;-69
2021/04/16 01:22:30;;;;;;;11.15;6.85;;;;;;;;;;735570;189;917712;-66
2021/04/16 01:24:56;;;;;;;11.20;6.70;;;;;;;;;;734872;189;919126;-68
2021/04/16 01:27:22;;;;;;;11.13;7.90;;;;;;;;;;732083;189;917543;-69
2021/04/16 01:29:48;;;;;;;9.35;6.80;;;;;;;;;;735851;189;919073;-69
2021/04/16 01:32:14;;;;;;;12.60;7.30;;;;;;;;;;736736;189;918367;-69
2021/04/16 01:34:40;;;;;;;11.23;6.63;;;;;;;;;;737195;189;917417;-69
2021/04/16 01:37:06;;;;;;;8.33;7.20;;;;;;;;;;736019;189;915853;-68
2021/04/16 01:39:32;;;;;;;11.05;7.53;;;;;;;;;;739960;189;916556;-67
2021/04/16 01:41:58;;;;;;;9.03;6.50;;;;;;;;;;734378;189;915719;-68
2021/04/16 01:44:24;;;;;;;16.60;8.40;;;;;;;;;;733246;189;1050980;-69
2021/04/16 01:46:55;;;;;;;11.53;7.40;;;;;;;;;;732403;189;915724;-69
2021/04/16 01:49:21;;;;;;;9.37;7.47;;;;;;;;;;736594;189;975579;-68
2021/04/16 01:51:47;;;;;;;10.83;8.00;;;;;;;;;;735746;189;916562;-68
2021/04/16 01:54:18;;;;;;;9.97;7.20;;;;;;;;;;734284;189;919705;-68
2021/04/16 01:56:43;;;;;;;8.80;6.30;;;;;;;;;;736702;189;922759;-68
2021/04/16 01:59:10;;;;;;;11.33;8.00;;;;;;;;;;735786;189;944223;-68
2021/04/16 02:01:35;;;;;;;12.07;7.20;;;;;;;;;;734634;189;919406;-69
2021/04/16 02:04:01;;;;;;;9.10;6.63;;;;;;;;;;731921;189;1186159;-68
2021/04/16 02:06:27;;;;;;;10.10;7.87;;;;;;;;;;741365;187;915052;-68
2021/04/16 02:08:54;;;;;;;10.75;8.02;;;;;;;;;;736332;189;919576;-69
2021/04/16 02:11:20;;;;;;;9.30;7.17;;;;;;;;;;738712;189;1017126;-68
2021/04/16 02:13:45;;;;;;;14.57;7.27;;;;;;;;;;736506;189;914838;-69
2021/04/16 02:16:11;;;;;;;12.97;7.80;;;;;;;;;;736793;189;919604;-68
2021/04/16 02:18:38;;;;;;;9.85;7.35;;;;;;;;;;733841;189;920038;-67
2021/04/16 02:21:04;;;;;;;10.57;7.40;;;;;;;;;;735392;189;919512;-69
2021/04/16 02:23:29;;;;;;;11.47;8.23;;;;;;;;;;727499;190;918870;-68
2021/04/16 02:25:55;;;;;;;12.93;8.50;;;;;;;;;;732546;189;919162;-68
2021/04/16 02:28:21;;;;;;;13.10;8.47;;;;;;;;;;734505;189;918942;-68
2021/04/16 02:30:47;;;;;;;12.67;8.00;;;;;;;;;;736390;189;917941;-68
2021/04/16 02:33:13;;;;;;;11.83;8.37;;;;;;;;;;734417;189;919858;-67
2021/04/16 02:35:39;;;;;;;11.17;8.50;;;;;;;;;;733775;189;916855;-68
2021/04/16 02:38:04;;;;;;;12.63;8.10;;;;;;;;;;742690;189;915382;-67
2021/04/16 02:40:30;;;;;;;13.13;9.93;;;;;;;;;;733500;189;917931;-67
2021/04/16 02:42:56;;;;;;;13.70;9.20;;;;;;;;;;735568;189;919483;-68
2021/04/16 02:45:22;;;;;;;13.98;8.50;;;;;;;;;;733066;189;919421;-67
2021/04/16 02:47:48;;;;;;;14.50;10.13;;;;;;;;;;741276;189;919196;-67
2021/04/16 02:50:14;;;;;;;14.93;10.10;;;;;;;;;;729858;189;936782;-67
2021/04/16 02:52:40;;;;;;;13.57;9.90;;;;;;;;;;731382;189;919685;-68
2021/04/16 02:55:07;;;;;;;16.60;11.03;;;;;;;;;;735742;189;919109;-68
2021/04/16 02:57:33;;;;;;;17.53;11.20;;;;;;;;;;737367;189;919102;-68
2021/04/16 02:59:59;;;;;;;17.00;9.37;;;;;;;;;;732959;189;1020781;-68
2021/04/16 03:02:25;;;;;;;13.87;9.30;;;;;;;;;;735509;189;895956;-67
2021/04/16 03:04:50;;;;;;;14.10;10.05;;;;;;;;;;728796;189;919295;-67
2021/04/16 03:07:16;;;;;;;14.13;8.63;;;;;;;;;;734156;189;919524;-68
2021/04/16 03:09:42;;;;;;;14.43;9.93;;;;;;;;;;742238;189;919022;-67
2021/04/16 03:12:08;;;;;;;18.30;10.97;;;;;;;;;;733341;189;1104322;-68
2021/04/16 03:14:34;;;;;;;18.17;11.50;;;;;;;;;;729945;189;919164;-68
2021/04/16 03:17:00;;;;;;;13.50;9.63;;;;;;;;;;731654;189;918917;-68
2021/04/16 03:19:26;;;;;;;16.00;10.32;;;;;;;;;;740942;188;881754;-68
2021/04/16 03:21:52;;;;;;;16.77;10.63;;;;;;;;;;737349;189;919621;-68
2021/04/16 03:24:17;;;;;;;15.80;10.87;;;;;;;;;;739632;189;918381;-68
2021/04/16 03:26:43;;;;;;;15.60;11.00;;;;;;;;;;735979;189;918541;-68
2021/04/16 03:29:09;;;;;;;17.05;11.25;;;;;;;;;;733474;189;918876;-68
2021/04/16 03:31:35;;;;;;;16.17;10.80;;;;;;;;;;733757;189;920209;-68
2021/04/16 03:34:02;;;;;;;16.07;10.87;;;;;;;;;;744290;189;918740;-68
2021/04/16 03:36:28;;;;;;;18.73;10.73;;;;;;;;;;739162;189;917898;-68
2021/04/16 03:38:53;;;;;;;15.60;10.00;;;;;;;;;;730993;189;919246;-67
2021/04/16 03:41:19;;;;;;;15.40;11.10;;;;;;;;;;734851;189;919985;-67
2021/04/16 03:43:45;;;;;;;21.33;11.90;;;;;;;;;;740339;189;919445;-67
2021/04/16 03:46:11;;;;;;;16.67;10.93;;;;;;;;;;737521;189;920167;-68
2021/04/16 03:48:37;;;;;;;16.20;11.10;;;;;;;;;;733722;189;918484;-68
2021/04/16 03:51:03;;;;;;;22.40;12.30;;;;;;;;;;740333;189;921300;-68
2021/04/16 03:53:29;;;;;;;18.30;12.10;;;;;;;;;;734463;189;918041;-68
2021/04/16 03:55:55;;;;;;;17.60;11.38;;;;;;;;;;735634;189;922316;-67
2021/04/16 03:58:20;;;;;;;16.93;10.53;;;;;;;;;;739102;189;917460;-69
2021/04/16 04:00:46;;;;;;;18.43;12.17;;;;;;;;;;735330;189;912793;-68
2021/04/16 04:03:12;;;;;;;21.03;12.50;;;;;;;;;;735535;189;916358;-67
2021/04/16 04:05:38;;;;;;;21.97;12.50;;;;;;;;;;740670;189;919317;-68
2021/04/16 04:08:04;;;;;;;17.07;12.50;;;;;;;;;;732177;189;919547;-69
2021/04/16 04:10:36;;;;;;;18.10;12.20;;;;;;;;;;730349;189;920390;-68
2021/04/16 04:12:56;;;;;;;18.53;12.70;;;;;;;;;;735606;189;1071975;-70
2021/04/16 04:15:22;;;;;;;16.67;10.77;;;;;;;;;;739839;189;918929;-69
2021/04/16 04:17:47;;;;;;;17.47;11.40;;;;;;;;;;736401;189;919446;-68
2021/04/16 04:20:24;;;;;;;15.97;11.90;;;;;;;;;;728648;189;2094954;-69
2021/04/16 04:22:49;;;;;;;19.37;12.37;;;;;;;;;;729061;189;928990;-68
2021/04/16 04:25:15;;;;;;;19.60;11.40;;;;;;;;;;736527;189;918573;-68
2021/04/16 04:27:41;;;;;;;17.10;11.67;;;;;;;;;;732830;189;918300;-67
2021/04/16 04:30:07;;;;;;;17.50;10.85;;;;;;;;;;733139;187;919288;-68
2021/04/16 04:32:33;;;;;;;19.83;14.20;;;;;;;;;;742297;189;945469;-68
2021/04/16 04:34:59;;;;;;;25.87;12.70;;;;;;;;;;735594;189;919298;-68
2021/04/16 04:37:25;;;;;;;20.37;11.75;;;;;;;;;;734673;189;1020624;-68
2021/04/16 04:39:51;;;;;;;19.50;13.47;;;;;;;;;;733399;189;2410039;-69
2021/04/16 04:42:16;;;;;;;15.73;10.60;;;;;;;;;;738776;189;919419;-68
2021/04/16 04:44:42;;;;;;;16.00;11.47;;;;;;;;;;731651;189;994233;-67
2021/04/16 04:47:08;;;;;;;19.20;11.40;;;;;;;;;;735263;189;918976;-67
2021/04/16 04:49:34;;;;;;;20.27;11.77;;;;;;;;;;727519;189;918731;-69
2021/04/16 04:52:06;;;;;;;18.93;12.33;;;;;;;;;;736010;189;915857;-68
2021/04/16 04:54:31;;;;;;;21.57;12.10;;;;;;;;;;734232;189;919123;-67
2021/04/16 04:56:57;;;;;;;20.60;12.60;;;;;;;;;;738837;189;878202;-67
2021/04/16 04:59:23;;;;;;;16.40;11.73;;;;;;;;;;737520;189;919127;-68
2021/04/16 05:01:49;;;;;;;19.10;12.80;;;;;;;;;;734671;189;938446;-68
2021/04/16 05:04:16;;;;;;;18.05;12.82;;;;;;;;;;742441;189;918514;-67
2021/04/16 05:06:42;;;;;;;17.13;11.63;;;;;;;;;;736072;189;918801;-68
2021/04/16 05:09:08;;;;;;;22.23;14.03;;;;;;;;;;733089;189;919031;-68
2021/04/16 05:11:34;;;;;;;19.97;13.27;;;;;;;;;;728655;189;919388;-68
2021/04/16 05:14:00;;;;;;;17.80;11.80;;;;;;;;;;741322;189;919040;-68
2021/04/16 05:16:26;;;;;;;22.10;12.63;;;;;;;;;;737519;189;640405;-68
2021/04/16 05:18:53;;;;;;;24.97;12.27;;;;;;;;;;732260;189;691029;-68
2021/04/16 05:21:18;;;;;;;18.47;12.73;;;;;;;;;;738471;189;632190;-68
2021/04/16 05:23:44;;;;;;;24.87;13.00;;;;;;;;;;739884;189;633496;-68
2021/04/16 05:26:10;;;;;;;18.57;12.57;;;;;;;;;;733923;189;967127;-68
2021/04/16 05:28:37;;;;;;;22.58;12.80;;;;;;;;;;740962;189;919590;-67
2021/04/16 05:31:04;;;;;;;22.40;13.20;;;;;;;;;;741820;186;918020;-70
2021/04/16 05:33:30;;;;;;;19.67;11.80;;;;;;;;;;730280;189;919208;-68
2021/04/16 05:35:56;;;;;;;22.23;13.50;;;;;;;;;;734410;189;919395;-68
2021/04/16 05:38:22;;;;;;;18.97;13.07;;;;;;;;;;735556;189;919750;-67
2021/04/16 05:40:48;;;;;;;19.43;10.73;;;;;;;;;;732276;189;926997;-68
2021/04/16 05:43:13;;;;;;;20.87;12.97;;;;;;;;;;735286;189;941677;-67
2021/04/16 05:45:39;;;;;;;21.20;12.90;;;;;;;;;;745007;189;920001;-70
2021/04/16 05:48:05;;;;;;;21.03;12.80;;;;;;;;;;737053;189;1309760;-68
2021/04/16 05:50:31;;;;;;;21.20;12.43;;;;;;;;;;735777;189;919168;-68
2021/04/16 05:53:02;;;;;;;23.70;13.77;;;;;;;;;;731347;189;918384;-68
2021/04/16 05:55:23;;;;;;;23.97;13.07;;;;;;;;;;724485;190;918627;-67
2021/04/16 05:57:49;;;;;;;27.00;13.50;;;;;;;;;;733914;189;919256;-68
2021/04/16 06:00:15;;;;;;;20.17;12.77;;;;;;;;;;738148;189;966421;-67
2021/04/16 06:02:42;;;;;;;21.97;13.60;;;;;;;;;;738997;189;918884;-68
2021/04/16 06:05:09;;;;;;;18.03;11.77;;;;;;;;;;734530;189;919330;-67
2021/04/16 06:07:35;;;;;;;20.73;12.90;;;;;;;;;;729539;189;919534;-68
2021/04/16 06:10:01;;;;;;;20.80;12.50;;;;;;;;;;740339;189;919616;-67
2021/04/16 06:12:27;;;;;;;21.00;12.60;;;;;;;;;;735107;189;1020715;-68
2021/04/16 06:14:53;;;;;;;20.43;13.17;;;;;;;;;;734706;189;919164;-67
2021/04/16 06:17:19;;;;;;;25.60;13.37;;;;;;;;;;736496;189;914974;-67
2021/04/16 06:19:44;;;;;;;21.87;12.33;;;;;;;;;;743177;186;913100;-68
2021/04/16 06:22:10;;;;;;;22.43;12.80;;;;;;;;;;733835;189;914799;-67
2021/04/16 06:24:36;;;;;;;21.33;11.80;;;;;;;;;;733171;189;920722;-68
2021/04/16 06:27:02;;;;;;;20.80;12.77;;;;;;;;;;739336;189;913425;-68
2021/04/16 06:29:28;;;;;;;17.33;11.90;;;;;;;;;;735496;189;914128;-67
2021/04/16 06:31:54;;;;;;;20.50;11.93;;;;;;;;;;737316;189;912494;-68
2021/04/16 06:34:20;;;;;;;18.12;10.95;;;;;;;;;;741304;189;918678;-69
2021/04/16 06:36:45;;;;;;;18.93;11.20;;;;;;;;;;738003;189;911660;-68
2021/04/16 06:39:11;;;;;;;23.07;12.87;;;;;;;;;;735866;189;911515;-67
2021/04/16 06:41:38;;;;;;;20.60;12.53;;;;;;;;;;741569;189;915707;-70
2021/04/16 06:44:13;;;;;;;21.37;12.57;;;;;;;;;;731408;189;916088;-67
2021/04/16 06:46:39;;;;;;;19.80;12.70;;;;;;;;;;736499;189;915706;-68
2021/04/16 06:49:06;;;;;;;16.13;11.20;;;;;;;;;;727349;189;918020;-70
2021/04/16 06:51:32;;;;;;;20.00;11.10;;;;;;;;;;738918;189;918779;-69
2021/04/16 06:53:58;;;;;;;19.03;11.97;;;;;;;;;;733572;187;919117;-68
2021/04/16 06:56:39;;;;;;;18.77;12.90;;;;;;;;;;732981;189;1028648;-68
2021/04/16 06:59:08;;;;;;;19.87;12.35;;;;;;;;;;732628;189;920789;-68
2021/04/16 07:01:35;;;;;;;21.20;12.87;;;;;;;;;;732917;189;915588;-68
2021/04/16 07:04:17;;;;;;;24.13;14.00;;;;;;;;;;739849;189;913444;-68
2021/04/16 07:06:43;;;;;;;24.30;13.83;;;;;;;;;;735630;189;1022947;-69
2021/04/16 07:09:09;;;;;;;25.10;13.17;;;;;;;;;;736870;189;916723;-69
2021/04/16 07:11:37;;;;;;;19.10;12.70;;;;;;;;;;734161;189;915711;-68
2021/04/16 07:14:03;;;;;;;20.43;12.73;;;;;;;;;;738690;189;912836;-68
2021/04/16 07:16:29;;;;;;;20.90;12.17;;;;;;;;;;733296;189;916049;-67
2021/04/16 07:18:54;;;;;;;23.97;12.90;;;;;;;;;;736436;189;912518;-67
2021/04/16 07:21:21;;;;;;;22.63;13.47;;;;;;;;;;737441;189;912734;-67
2021/04/16 07:23:47;;;;;;;20.58;12.13;;;;;;;;;;736857;189;919350;-68
2021/04/16 07:26:16;;;;;;;20.57;13.47;;;;;;;;;;732632;189;917045;-67
2021/04/16 07:28:42;;;;;;;16.77;11.40;;;;;;;;;;732112;189;923468;-67
2021/04/16 07:31:13;;;;;;;21.63;12.17;;;;;;;;;;736254;189;1020003;-67
2021/04/16 07:33:39;;;;;;;15.20;9.25;;;;;;;;;;735494;189;919050;-68
2021/04/16 07:36:11;;;;;;;20.73;11.73;;;;;;;;;;734283;189;917986;-67
2021/04/16 07:38:37;;;;;;;16.63;10.43;;;;;;;;;;734816;189;925020;-67
2021/04/16 07:41:09;;;;;;;15.10;10.70;;;;;;;;;;740201;189;923016;-68
2021/04/16 07:43:43;;;;;;;19.10;11.97;;;;;;;;;;739245;189;912333;-67
2021/04/16 07:46:15;;;;;;;18.17;11.30;;;;;;;;;;735493;189;926991;-68
2021/04/16 07:48:41;;;;;;;15.97;10.47;;;;;;;;;;734967;189;1316116;-67
2021/04/16 07:51:07;;;;;;;15.75;10.95;;;;;;;;;;736728;189;921009;-67
2021/04/16 07:53:39;;;;;;;16.90;10.40;;;;;;;;;;737168;189;920251;-68
2021/04/16 07:56:21;;;;;;;16.00;9.60;;;;;;;;;;735405;189;920672;-67
2021/04/16 07:59:04;;;;;;;15.17;9.00;;;;;;;;;;731974;189;915916;-67
2021/04/16 08:01:34;;;;;;;14.50;10.10;;;;;;;;;;735987;189;918205;-68
2021/04/16 08:04:01;;;;;;;17.57;9.83;;;;;;;;;;733073;189;919496;-69
2021/04/16 08:06:29;;;;;;;13.90;9.03;;;;;;;;;;738659;189;919514;-67
2021/04/16 08:08:55;;;;;;;16.00;10.60;;;;;;;;;;738385;188;907376;-68
2021/04/16 08:11:24;;;;;;;16.83;9.50;;;;;;;;;;737577;189;919849;-68
2021/04/16 08:13:56;;;;;;;14.00;8.00;;;;;;;;;;734463;189;919582;-68
2021/04/16 08:16:24;;;;;;;16.65;10.25;;;;;;;;;;737170;189;919563;-68
2021/04/16 08:19:08;;;;;;;20.00;8.87;;;;;;;;;;733987;187;1124214;-68
2021/04/16 08:21:35;;;;;;;13.10;8.30;;;;;;;;;;738816;189;917536;-68
2021/04/16 08:24:01;;;;;;;15.00;9.37;;;;;;;;;;732634;189;943009;-67
2021/04/16 08:26:28;;;;;;;12.33;8.83;;;;;;;;;;735492;189;919789;-68
2021/04/16 08:28:52;;;;;;;13.30;8.88;;;;;;;;;;736761;189;919080;-69
2021/04/16 08:31:22;;;;;;;14.23;9.70;;;;;;;;;;735730;189;935470;-67
2021/04/16 08:33:48;;;;;;;14.37;8.87;;;;;;;;;;732130;189;1019822;-69
2021/04/16 08:36:17;;;;;;;13.87;9.40;;;;;;;;;;736185;189;919085;-68
2021/04/16 08:38:45;;;;;;;14.37;8.77;;;;;;;;;;741283;189;900921;-69
2021/04/16 08:41:11;;;;;;;11.18;6.72;;;;;;;;;;736425;189;919007;-69
2021/04/16 08:43:40;;;;;;;13.50;8.30;;;;;;;;;;729389;189;917998;-71
2021/04/16 08:46:06;;;;;;;15.73;9.77;;;;;;;;;;739556;189;919532;-69
2021/04/16 08:48:35;;;;;;;15.63;8.90;;;;;;;;;;736024;189;918987;-68
2021/04/16 08:50:58;;;;;;;15.07;8.30;;;;;;;;;;735799;189;920887;-69
2021/04/16 08:53:24;;;;;;;14.00;9.82;;;;;;;;;;736630;189;919049;-68
2021/04/16 08:55:52;;;;;;;14.10;8.37;;;;;;;;;;741775;189;633792;-69
2021/04/16 08:58:20;;;;;;;11.17;8.20;;;;;;;;;;737710;189;918642;-68
2021/04/16 09:00:48;;;;;;;13.67;8.00;;;;;;;;;;732557;189;922519;-68
2021/04/16 09:03:15;;;;;;;12.40;7.27;;;;;;;;;;738570;189;1166562;-68
2021/04/16 09:05:47;;;;;;;11.00;7.40;;;;;;;;;;736221;189;919464;-68
2021/04/16 09:08:18;;;;;;;11.43;7.97;;;;;;;;;;734615;189;924304;-68
2021/04/16 09:10:44;;;;;;;12.77;8.60;;;;;;;;;;726369;189;1412783;-68
2021/04/16 09:13:10;;;;;;;10.87;7.53;;;;;;;;;;741240;189;918662;-69
2021/04/16 09:15:36;;;;;;;10.23;7.40;;;;;;;;;;734800;188;918580;-68
2021/04/16 09:18:17;;;;;;;11.90;6.85;;;;;;;;;;736247;188;919184;-69
2021/04/16 09:20:57;;;;;;;14.80;7.63;;;;;;;;;;733005;189;919358;-68
2021/04/16 09:23:41;;;;;;;10.00;7.60;;;;;;;;;;727976;189;920255;-69
2021/04/16 09:26:07;;;;;;;12.30;8.67;;;;;;;;;;734523;189;920164;-68
2021/04/16 09:28:49;;;;;;;12.70;7.57;;;;;;;;;;738271;189;856141;-68
2021/04/16 09:31:21;;;;;;;12.03;7.60;;;;;;;;;;730652;189;1443504;-68
2021/04/16 09:33:48;;;;;;;13.10;8.20;;;;;;;;;;736451;189;916679;-68
2021/04/16 09:36:33;;;;;;;12.63;8.67;;;;;;;;;;733912;189;919790;-68
2021/04/16 09:39:01;;;;;;;13.17;8.73;;;;;;;;;;731053;189;915599;-68
2021/04/16 09:41:27;;;;;;;10.30;7.33;;;;;;;;;;733813;187;974618;-69
2021/04/16 09:43:53;;;;;;;12.20;7.77;;;;;;;;;;733063;186;918544;-68
2021/04/16 09:46:22;;;;;;;14.90;9.33;;;;;;;;;;738999;189;918669;-69
2021/04/16 09:48:48;;;;;;;12.80;9.67;;;;;;;;;;737030;189;918830;-68
2021/04/16 09:51:18;;;;;;;15.67;8.80;;;;;;;;;;734930;189;1081031;-69
2021/04/16 09:53:44;;;;;;;16.40;10.70;;;;;;;;;;737686;189;919407;-69
2021/04/16 09:56:10;;;;;;;13.17;8.77;;;;;;;;;;734067;189;943363;-69
2021/04/16 09:58:52;;;;;;;12.07;7.90;;;;;;;;;;732484;189;919296;-69
2021/04/16 10:01:18;;;;;;;11.83;8.40;;;;;;;;;;729999;189;918736;-67
2021/04/16 10:03:43;;;;;;;14.37;9.60;;;;;;;;;;734623;189;920355;-68
2021/04/16 10:06:13;;;;;;;13.38;9.30;;;;;;;;;;738464;189;919653;-68
2021/04/16 10:08:39;;;;;;;12.03;8.43;;;;;;;;;;735509;189;914517;-68
2021/04/16 10:11:05;;;;;;;15.60;8.73;;;;;;;;;;737711;189;918788;-67
2021/04/16 10:13:31;;;;;;;14.90;9.70;;;;;;;;;;736872;189;919104;-68
2021/04/16 10:15:57;;;;;;;13.83;7.80;;;;;;;;;;738414;189;1125017;-69
2021/04/16 10:18:28;;;;;;;13.40;8.13;;;;;;;;;;733845;189;922943;-68
2021/04/16 10:21:00;;;;;;;13.05;7.87;;;;;;;;;;734742;189;919527;-68
2021/04/16 10:23:34;;;;;;;13.60;9.30;;;;;;;;;;737558;189;918544;-67
2021/04/16 10:27:15;;;;;;;11.73;8.10;;;;;;;;;;739564;189;919173;-69
2021/04/16 10:38:52;;;;;;;17.23;8.63;;;;;;;;;;740636;188;634912;-68
2021/04/16 10:44:44;;;;;;;17.20;9.55;;;;;;;;;;738180;189;918844;-67
2021/04/16 10:48:58;;;;;;;14.97;9.50;;;;;;;;;;732798;189;986498;-67
2021/04/16 11:00:35;;;;;;;12.53;7.63;;;;;;;;;;731420;190;919354;-69
2021/04/16 11:24:18;;;;;;;16.93;10.10;;;;;;;;;;720738;190;894732;-68
2021/04/16 12:40:14;;;;;;;20.07;12.77;;;;;;;;;;734420;189;918220;-68
2021/04/16 12:42:40;;;;;;;13.37;9.37;;;;;;;;;;737403;189;918731;-68
2021/04/16 12:45:07;;;;;;;19.13;11.00;;;;;;;;;;737004;189;920578;-68
2021/04/16 12:47:33;;;;;;;17.60;10.97;;;;;;;;;;735922;189;907151;-68
2021/04/16 12:49:58;;;;;;;16.43;10.67;;;;;;;;;;734613;189;636842;-69
2021/04/16 12:52:24;;;;;;;17.93;11.37;;;;;;;;;;738325;188;921246;-68
2021/04/16 12:54:51;;;;;;;39.17;12.57;;;;;;;;;;736345;189;1737999;-68
2021/04/16 12:57:16;;;;;;;18.20;11.33;;;;;;;;;;740435;189;645887;-68
2021/04/16 12:59:42;;;;;;;16.87;11.83;;;;;;;;;;737749;189;733730;-68
2021/04/16 13:02:08;;;;;;;14.47;10.73;;;;;;;;;;742388;189;616951;-69
2021/04/16 13:04:34;;;;;;;15.57;10.27;;;;;;;;;;734307;189;908758;-67
2021/04/16 13:07:00;;;;;;;15.00;11.47;;;;;;;;;;739002;189;640820;-68
2021/04/16 13:09:26;;;;;;;18.70;10.80;;;;;;;;;;740528;189;918631;-68
2021/04/16 13:11:52;;;;;;;17.20;10.30;;;;;;;;;;736434;189;1021595;-69
2021/04/16 13:14:18;;;;;;;16.63;11.37;;;;;;;;;;732273;189;984699;-69
2021/04/16 13:16:44;;;;;;;17.57;10.30;;;;;;;;;;732571;189;1045534;-69
2021/04/16 13:19:12;;;;;;;17.37;11.35;;;;;;;;;;738362;189;926723;-70
2021/04/16 13:21:38;;;;;;;16.67;11.67;;;;;;;;;;736097;189;920206;-68
2021/04/16 13:24:04;;;;;;;15.03;11.23;;;;;;;;;;735179;189;920421;-68
2021/04/16 13:26:30;;;;;;;15.47;10.90;;;;;;;;;;736155;189;939081;-68
2021/04/16 13:28:56;;;;;;;16.00;11.60;;;;;;;;;;734202;189;923257;-70
2021/04/16 13:31:21;;;;;;;15.73;10.77;;;;;;;;;;732443;189;929888;-68
2021/04/16 13:33:47;;;;;;;14.40;10.03;;;;;;;;;;740202;189;918928;-67
2021/04/16 13:36:14;;;;;;;18.60;11.60;;;;;;;;;;736941;189;910884;-68
2021/04/16 13:38:40;;;;;;;39.23;30.63;;;;;;;;;;732999;189;918913;-68
2021/04/16 13:41:06;;;;;;;20.37;14.07;;;;;;;;;;731487;189;974589;-67
2021/04/16 13:43:32;;;;;;;14.53;10.57;;;;;;;;;;740636;189;918654;-68
2021/04/16 13:45:57;;;;;;;19.27;12.30;;;;;;;;;;733214;189;919053;-68
2021/04/16 13:48:23;;;;;;;17.13;11.97;;;;;;;;;;734489;189;923519;-68
2021/04/16 13:50:49;;;;;;;16.87;10.90;;;;;;;;;;736760;189;815875;-68
2021/04/16 13:53:15;;;;;;;16.33;10.50;;;;;;;;;;732900;189;918726;-68
2021/04/16 13:55:41;;;;;;;16.83;10.40;;;;;;;;;;731465;189;919921;-69
2021/04/16 13:58:07;;;;;;;16.00;10.53;;;;;;;;;;737010;189;919786;-68
2021/04/16 14:00:33;;;;;;;19.23;11.07;;;;;;;;;;734961;189;918863;-68
2021/04/16 14:02:59;;;;;;;17.43;11.07;;;;;;;;;;735016;188;982225;-68
2021/04/16 14:05:25;;;;;;;15.80;9.70;;;;;;;;;;733814;189;920411;-69
2021/04/16 14:07:50;;;;;;;14.30;9.73;;;;;;;;;;741328;186;919078;-69
2021/04/16 14:10:17;;;;;;;19.43;11.30;;;;;;;;;;738004;189;919444;-68
2021/04/16 14:12:43;;;;;;;16.70;10.97;;;;;;;;;;734094;189;917999;-68
2021/04/16 14:15:09;;;;;;;17.83;10.93;;;;;;;;;;741853;189;921458;-68
2021/04/16 14:17:38;;;;;;;16.87;11.87;;;;;;;;;;735380;189;920219;-69
2021/04/16 14:20:09;;;;;;;17.75;11.65;;;;;;;;;;733884;189;917669;-69
2021/04/16 14:22:32;;;;;;;21.40;12.00;;;;;;;;;;732465;189;952897;-66
2021/04/16 14:24:58;;;;;;;15.73;10.80;;;;;;;;;;741836;186;1119184;-68
2021/04/16 14:27:23;;;;;;;18.77;11.90;;;;;;;;;;729557;189;919648;-68
2021/04/16 14:29:49;;;;;;;16.62;12.27;;;;;;;;;;732826;189;919414;-68
2021/04/16 14:32:15;;;;;;;15.87;11.27;;;;;;;;;;736674;189;916105;-69
2021/04/16 14:34:41;;;;;;;14.27;10.33;;;;;;;;;;737682;189;904097;-68
2021/04/16 14:37:09;;;;;;;14.53;10.47;;;;;;;;;;734556;189;918690;-68
2021/04/16 14:39:35;;;;;;;16.50;10.90;;;;;;;;;;738163;189;912933;-67
2021/04/16 14:42:01;;;;;;;17.57;11.07;;;;;;;;;;733078;189;918557;-68
2021/04/16 14:44:26;;;;;;;17.33;10.77;;;;;;;;;;733154;189;917765;-68
2021/04/16 14:46:53;;;;;;;14.17;9.57;;;;;;;;;;736225;189;919339;-66
2021/04/16 14:49:21;;;;;;;18.53;12.67;;;;;;;;;;734346;189;877357;-69
2021/04/16 14:51:47;;;;;;;17.63;11.13;;;;;;;;;;734422;189;918343;-68
2021/04/16 14:54:19;;;;;;;16.70;11.90;;;;;;;;;;733625;189;919417;-68
2021/04/16 14:56:45;;;;;;;19.83;12.30;;;;;;;;;;740000;189;920084;-70
2021/04/16 14:59:12;;;;;;;19.00;11.97;;;;;;;;;;731465;189;919427;-68
2021/04/16 15:01:38;;;;;;;19.63;13.93;;;;;;;;;;734960;189;918900;-68
2021/04/16 15:04:05;;;;;;;21.87;13.57;;;;;;;;;;731049;189;919344;-69
2021/04/16 15:06:31;;;;;;;22.50;13.50;;;;;;;;;;739505;189;918449;-68
2021/04/16 15:09:00;;;;;;;17.83;11.70;;;;;;;;;;732459;189;918623;-69
2021/04/16 15:11:29;;;;;;;18.30;11.83;;;;;;;;;;736369;189;1021831;-68
2021/04/16 15:13:55;;;;;;;19.20;12.87;;;;;;;;;;739682;188;631694;-68
2021/04/16 15:16:21;;;;;;;20.33;12.90;;;;;;;;;;737272;188;918942;-68
2021/04/16 15:18:47;;;;;;;23.90;13.33;;;;;;;;;;735337;189;918835;-68
2021/04/16 15:21:14;;;;;;;21.20;13.80;;;;;;;;;;736161;189;919473;-68
2021/04/16 15:23:40;;;;;;;18.10;12.70;;;;;;;;;;742626;189;918739;-68
2021/04/16 15:26:08;;;;;;;19.13;11.93;;;;;;;;;;733458;189;919113;-67
2021/04/16 15:28:36;;;;;;;19.17;13.33;;;;;;;;;;739591;189;918395;-68
2021/04/16 15:31:04;;;;;;;17.03;11.70;;;;;;;;;;735979;189;1066368;-67
2021/04/16 15:46:34;;;;;;;23.20;15.33;;;;;;;;;;736928;189;918040;-68
2021/04/16 15:48:53;;;;;;;22.60;15.57;;;;;;;;;;738017;189;909556;-69
2021/04/16 15:51:19;;;;;;;22.98;13.85;;;;;;;;;;736344;189;810260;-69
2021/04/16 15:53:48;;;;;;;23.17;15.20;;;;;;;;;;736651;189;913184;-69
2021/04/16 15:56:12;;;;;;;21.00;14.60;;;;;;;;;;737510;189;918459;-70
2021/04/16 15:58:37;;;;;;;22.43;14.27;;;;;;;;;;735701;189;915146;-70
2021/04/16 16:01:04;;;;;;;18.77;13.83;;;;;;;;;;734252;189;920029;-69
2021/04/16 16:03:29;;;;;;;21.53;14.57;;;;;;;;;;738052;189;918265;-70
2021/04/16 16:05:55;;;;;;;20.73;13.60;;;;;;;;;;731169;189;916695;-69
2021/04/16 16:08:21;;;;;;;24.93;14.97;;;;;;;;;;735118;189;916455;-69
2021/04/16 16:10:48;;;;;;;19.77;13.90;;;;;;;;;;724479;189;2525198;-69
2021/04/16 16:13:15;;;;;;;20.50;14.13;;;;;;;;;;739897;185;918838;-68
2021/04/16 16:15:41;;;;;;;17.93;11.93;;;;;;;;;;732928;189;919414;-68
2021/04/16 16:18:07;;;;;;;22.00;13.57;;;;;;;;;;732369;189;918755;-69
2021/04/16 16:20:33;;;;;;;25.08;13.15;;;;;;;;;;739456;189;916798;-69